This is the latest recevied weather packets stored in our database for station/object AI5YA-13. If no packets are shown the sender has not sent any weather packets the latest 1 day(s).
| Time | Temp. | Humidity | Pressure | Rain* | Wind** | Luminosity | Snow |
|---|---|---|---|---|---|---|---|
| 1777985046 | 18.89° C | 48% | 1008.9 hPa | 0 mm | 0 m/s | 33 W/m² | - |
| 1777984742 | 18.89° C | 46% | 1008.6 hPa | 0 mm | 0 m/s | 18 W/m² | - |
| 1777984439 | 18.89° C | 47% | 1008.7 hPa | 0 mm | 0 m/s | 16 W/m² | - |
| 1777984135 | 18.89° C | 47% | 1008.7 hPa | 0 mm | 0 m/s | 15 W/m² | - |
| 1777983832 | 18.89° C | 47% | 1008.5 hPa | 0 mm | 0 m/s | 11 W/m² | - |
| 1777983529 | 18.89° C | 48% | 1008.6 hPa | 0 mm | 0 m/s | 8 W/m² | - |
| 1777983226 | 18.33° C | 50% | 1008.5 hPa | 0 mm | 0 m/s | 6 W/m² | - |
| 1777982922 | 17.78° C | 54% | 1008.5 hPa | 0 mm | 0 m/s | 2 W/m² | - |
| 1777982618 | 17.78° C | 56% | 1008.4 hPa | 0 mm | 0 m/s | 0 W/m² | - |
| 1777982317 | 16.67° C | 60% | 1008.5 hPa | 0 mm | 0 m/s | 0 W/m² | - |
| 1777982014 | 16.11° C | 66% | 1008.4 hPa | 0 mm | 0 m/s | 0 W/m² | - |
| 1777981712 | 16.11° C | 66% | 1008.4 hPa | 0 mm | 0 m/s | 0 W/m² | - |
| 1777981408 | 16.11° C | 64% | 1008 hPa | 0 mm | 0 m/s | 0 W/m² | - |
| 1777981105 | 15.56° C | 64% | 1008.3 hPa | 0 mm | 0 m/s | 0 W/m² | - |
| 1777980801 | 15.56° C | 65% | 1008.1 hPa | 0 mm | 0 m/s | 0 W/m² | - |
| 1777980497 | 15.56° C | 65% | 1008.1 hPa | 0 mm | 0 m/s | 0 W/m² | - |
| 1777980195 | 16.11° C | 63% | 1007.9 hPa | 0 mm | 0 m/s | 0 W/m² | - |
| 1777979890 | 16.67° C | 61% | 1007.9 hPa | 0 mm | 0 m/s | 0 W/m² | - |
| 1777979586 | 16.11° C | 59% | 1008.1 hPa | 0 mm | 0 m/s | 0 W/m² | - |
| 1777979276 | 16.11° C | 61% | 1008.1 hPa | 0 mm | 0 m/s | 0 W/m² | - |
| 1777978975 | 16.11° C | 62% | 1008 hPa | 0 mm | 0 m/s | 0 W/m² | - |
| 1777978671 | 16.67° C | 62% | 1007.9 hPa | 0 mm | 0 m/s | 0 W/m² | - |
| 1777978366 | 16.67° C | 61% | 1007.9 hPa | 0 mm | 0 m/s | 0 W/m² | - |
| 1777978063 | 16.67° C | 61% | 1008.3 hPa | 0 mm | 0 m/s | 0 W/m² | - |
| 1777977761 | 17.22° C | 61% | 1008 hPa | 0 mm | 0 m/s | 0 W/m² | - |
* Rain latest hour (hover to see other rain measurements)
** Current wind speed in m/s (hover to see current wind gust speed)